Cusick, WA

4:51 PM PST on December 17, 2014 (GMT -0800)
405 E. Lincoln | Change Station
CLOSE
Current Station
Personal Weather Station
Location: Chewelah, WA
Elevation: 1671 ft
Nearby Weather Stations
Active Advisory: Air Stagnation Advisory

Elev 1671 ft 48.28 °N, 117.71 °W | Updated 1 minute ago

Rain
Rain
33.7 °F
Feels Like 34 °F
N
0.0
Wind Variable Wind from North
Gusts 1.0 mph

Today
High -- | Low -- °F
--% Chance of Precip.
Yesterday
High -- | Low -- °F
Precip. -- in
7:35 AM 3:55 PM
Waning Crescent, 18% visible
Pressure 29.93 in
Visibility 8.0 miles
Clouds Mostly Cloudy 2700 ft
Overcast 3500 ft
Windchill 34 °F
Dew Point 33 °F
Humidity 96%
Rainfall 0.04 in
Snow Depth Not available.
UV 0 out of 12
Pollen .10 out of 12
Air Quality Not available.
Flu Activity Not available.
SPECI KDEW 180015Z AUTO 03004KT 8SM UP BKN027 OVC035 02/01 A2993 RMK AO2 UPB12 P0000 T00170006

More Conditions Fewer Conditions

Pressure 29.93 in
Visibility 8.0 miles
Clouds Mostly Cloudy 2700 ft
Overcast 3500 ft
Windchill 34 °F
Dew Point 33 °F
Humidity 96%
Rainfall 0.04 in
Snow Depth Not available.
UV 0 out of 12
Pollen .10 out of 12
Air Quality Not available.
Flu Activity Not available.
SPECI KDEW 180015Z AUTO 03004KT 8SM UP BKN027 OVC035 02/01 A2993 RMK AO2 UPB12 P0000 T00170006

More Conditions Fewer Conditions

10-Day Weather Forecast

Almanac

Astronomy

Dec. 17, 2014 Rise Set
Actual Time
Civil Twilight
Nautical Twilight
Astronomical Twilight
Moon
Length of Visible Light
Length of Day
Tomorrow will be .
, % of the Moon is Illuminated

Today's Extremes

State Highs State Lows

Community

WunderPhotos

Upload Photos

1,778,837 photos uploaded!

WunderBlogs® & News

Nearby

Air Quality

  Air Quality AQ Index Pollutant
Not available.

Snow Depth

Station Depth Elevation

Earthquake Activity

City Distance Mag. Time & Date
Minimum magnitude displayed is 2.5.

Coastal Water Temperatures

Place Temperature

Nearby Weather Stations